Arlington, New Jersey
Current Conditions -  °F | °C
As of 2:51 AM on Friday 19 Dec 2014 (Local Time) from KEWR Reporting Station
Scattered Clouds Scattered Clouds  
Wind Chill: -1°   Ceiling: Unl
Heat Index:   Visibility: 10mi
Dew Point: -4°   Wind: 8mph
Humidity: 64%   Direction: 300°WNW
Pressure: 29.99"   Gusts: NA
Location:  40.7563°N, 74.1217°W
Report Text: KEWR 190751Z 30007KT 10SM FEW050 SCT200 SCT250 02/M04 A2999 RMK AO2 SLP153 T00221039
Loading
Personal Weather Stations






























Interactive Weather Map New forecast layout! Learn more

10-Day Weather Forecast

Advertisements
Track Severe Weather on mobile